0TS4 weather

Ullrich Airport
Ledbetter, Texas, United States

Public forecast

Using degrees Fahrenheit for public forecast. Weather courtesy of forecast.io.

METAR (pilot weather report)

Closest report is Giddings Lee County Airport, 10.7 nm (19.8 km) WNW. Retrieved 2019/07/20 17:35 UTC (0 seconds ago):

KGYB 201735Z AUTO 20008G14KT 10SM SCT039 34/22 A3000 RMK AO2 T03400224

TAF (pilot weather forecast)

Closest forecast is Easterwood Field, 37.3 nm (69.0 km) NE. Retrieved 2019/07/20 12:00 UTC (5 hours ago):

TAF KCLL 201157Z 2012/2112 VRB03KT P6SM SCT003 BKN018 TEMPO 2012/2013 BKN003 FM201500 17008KT P6SM FEW018 SCT025 FM210900 18005KT P6SM SCT015 FM211000 VRB04KT P6SM BKN015